Strona główna
METAR-TAF:

METAR-TAF

Lotnisko :

Port lotniczy Cardiff

Cardiff, Walia

Szerokość geograficzna: 51-24N, Długość geograficzna: 003-21W, wysokość: 67 m

Aktualna obserwacja pogody

Raport powstał 38 minut temu, godzina 15:50 UTC
Wiatr 5 kt od północny zachód
Temperatura 8°C
Wilgotność 76%
Ciśnienie 1015 hPa
Widzialność 10 km lub więcej

METAR: EGFF 251550Z AUTO 32005KT 9999 NCD 08/04 Q1015

czas: 16:28 (16:28 UTC)

Prognoza

Raport powstał 5 godziny i 31 minut temu, godzina 10:57 UTC
Prognoza ważna od 25 godzina 12 UTC do 26 godzina 12 UTC
Wiatr 8 kt od północny zachód
Widzialność 10 km lub więcej
Rozproszone chmury na wysokości 2800 ft
Przejściowo
od 26 godzina 02 UTC do 26 godzina 11 UTC
Widzialność: 8000 m
Prawdopodobieństwo 30% :
Przejściowo
od 26 godzina 03 UTC do 26 godzina 10 UTC
Widzialność: 3000 m
zamglenie

TAF: EGFF 251057Z 2512/2612 31008KT 9999 SCT028 TEMPO 2602/2611 8000 PROB30 TEMPO 2603/2610 3000 BR

Obserwacja i prognoza pogody dla ponad 4000 lotnisk (raport METAR i TAF).

Dostępne stacje oznaczono żółtymi i czerwonymi punktami na mapie.

Najedź kursorem aby zobaczyć nazwę stacji.

Kliknij aby zobaczyć obserwacje i prognozy pogody.

Aby zmienić mapę: kliknij na zielony przycisk z czarnym krzyżykiem, aby powiększyć; na zielony przycisk z myślnikiem, aby pomniejszyć; na zielone strzałki, aby przejść do map sąsiednich.


METAR-TAF: